Time;durP1;ratioP1;P1;durP2;ratioP2;P2;SDS_P1;SDS_P2;PMS_P1;PMS_P2;Temp;Humidity;BMP_temperature;BMP_pressure;BME280_temperature;BME280_humidity;BME280_pressure;Samples;Min_cycle;Max_cycle;Signal;HPM_P1;HPM_P2
2021/01/07 00:01:41;;;;;;;99.05;58.15;;;;;;;1.73;83.28;95718.94;1758334;79;21130;-87
2021/01/07 00:04:08;;;;;;;96.00;55.25;;;;;;;1.65;83.34;95713.74;1768974;79;21126;-87
2021/01/07 00:06:34;;;;;;;146.00;82.15;;;;;;;1.60;83.51;95718.46;1753993;80;21357;-87
2021/01/07 00:09:01;;;;;;;107.70;61.60;;;;;;;1.56;83.54;95729.95;1763282;79;21947;-87
2021/01/07 00:11:27;;;;;;;118.35;68.97;;;;;;;1.51;83.51;95735.98;1764900;80;21118;-87
2021/01/07 00:13:53;;;;;;;117.72;69.97;;;;;;;1.51;83.65;95755.18;1701405;82;21134;-87
2021/01/07 00:16:20;;;;;;;113.15;64.47;;;;;;;1.55;83.77;95754.41;1756000;79;21095;-87
2021/01/07 00:18:46;;;;;;;112.30;68.42;;;;;;;1.52;83.91;95738.06;1772861;79;21149;-87
2021/01/07 00:21:13;;;;;;;117.82;65.90;;;;;;;1.54;83.85;95743.37;1771167;79;21129;-87
2021/01/07 00:23:40;;;;;;;112.90;64.20;;;;;;;1.50;83.95;95747.16;1759322;80;21122;-87
2021/01/07 00:26:06;;;;;;;112.80;64.42;;;;;;;1.49;84.02;95740.44;1772695;79;21146;-87
2021/01/07 00:28:32;;;;;;;104.67;56.50;;;;;;;1.51;83.97;95738.53;1756756;79;21134;-87
2021/01/07 00:30:58;;;;;;;99.90;55.67;;;;;;;1.56;84.02;95735.54;1779903;79;21356;-87
2021/01/07 00:33:24;;;;;;;96.25;57.40;;;;;;;1.64;84.09;95739.50;1701139;82;21282;-87
2021/01/07 00:35:51;;;;;;;106.25;58.35;;;;;;;1.69;84.07;95735.55;1775970;79;21130;-87
2021/01/07 00:38:17;;;;;;;97.17;57.93;;;;;;;1.70;83.92;95734.59;1759080;79;21140;-87
2021/01/07 00:40:43;;;;;;;97.05;53.90;;;;;;;1.71;84.00;95740.05;1709222;82;21118;-87
2021/01/07 00:43:09;;;;;;;94.72;51.37;;;;;;;1.74;83.89;95741.52;1748270;79;21142;-87
2021/01/07 00:45:35;;;;;;;85.15;50.58;;;;;;;1.77;83.96;95742.03;1742533;79;21072;-87
2021/01/07 00:48:01;;;;;;;94.03;51.53;;;;;;;1.80;83.81;95741.77;1748490;81;21348;-88
2021/01/07 00:50:27;;;;;;;93.42;51.37;;;;;;;1.82;83.76;95744.19;1738789;81;21146;-88
2021/01/07 00:52:54;;;;;;;91.08;51.20;;;;;;;1.83;83.76;95741.95;1763757;80;21099;-87
2021/01/07 00:55:20;;;;;;;90.38;51.85;;;;;;;1.83;83.84;95736.83;1736819;79;21113;-86
2021/01/07 00:57:46;;;;;;;99.17;55.65;;;;;;;1.81;83.75;95736.17;1729232;81;21232;-86
2021/01/07 01:00:19;;;;;;;77.45;45.85;;;;;;;1.79;83.74;95739.35;1732342;79;21120;-87
2021/01/07 01:02:46;;;;;;;93.60;50.67;;;;;;;1.76;83.58;95737.86;1736918;79;21110;-87
2021/01/07 01:05:13;;;;;;;85.90;50.88;;;;;;;1.62;83.44;95735.77;1736336;80;21514;-87
2021/01/07 01:07:39;;;;;;;89.60;51.08;;;;;;;1.64;83.67;95741.58;1772138;80;21122;-87
2021/01/07 01:10:08;;;;;;;92.27;50.60;;;;;;;1.63;83.71;95732.77;1765275;80;21125;-87
2021/01/07 01:12:35;;;;;;;100.67;54.58;;;;;;;1.64;83.77;95740.30;1760444;80;21400;-87
2021/01/07 01:15:04;;;;;;;93.07;51.68;;;;;;;1.64;83.86;95742.86;1769284;80;21129;-87
2021/01/07 01:17:34;;;;;;;93.92;51.70;;;;;;;1.66;83.98;95744.80;1769297;79;21130;-87
2021/01/07 01:20:00;;;;;;;94.92;52.08;;;;;;;1.72;84.00;95739.58;1728664;82;21133;-87
2021/01/07 01:22:34;;;;;;;94.30;51.55;;;;;;;1.76;83.86;95742.98;1745602;81;21131;-87
2021/01/07 01:25:00;;;;;;;91.37;52.83;;;;;;;1.69;83.73;95748.35;1761014;80;21347;-86
2021/01/07 01:27:27;;;;;;;97.37;54.58;;;;;;;1.66;83.83;95751.20;1696413;83;21162;-86
2021/01/07 01:29:54;;;;;;;98.50;51.88;;;;;;;1.64;83.93;95754.86;1763355;79;21638;-86
2021/01/07 01:32:21;;;;;;;87.70;50.95;;;;;;;1.60;84.01;95744.07;1767142;80;21482;-85
2021/01/07 01:34:47;;;;;;;88.95;49.60;;;;;;;1.61;84.06;95753.84;1698717;83;21153;-86
2021/01/07 01:37:13;;;;;;;83.35;45.33;;;;;;;1.59;83.99;95746.30;1749685;81;22074;-86
2021/01/07 01:39:39;;;;;;;82.85;46.10;;;;;;;1.63;83.96;95750.21;1738667;81;21125;-86
2021/01/07 01:42:06;;;;;;;84.70;46.60;;;;;;;1.65;83.96;95753.91;1747756;81;22331;-86
2021/01/07 01:44:32;;;;;;;88.40;49.25;;;;;;;1.66;84.08;95744.00;1690672;84;21375;-86
2021/01/07 01:46:58;;;;;;;95.12;46.25;;;;;;;1.68;84.12;95748.50;1756083;81;21111;-86
2021/01/07 01:49:24;;;;;;;83.62;44.53;;;;;;;1.69;84.08;95746.27;1754559;81;21143;-86
2021/01/07 01:51:53;;;;;;;75.30;44.50;;;;;;;1.70;84.03;95746.59;1689444;84;21139;-86
2021/01/07 01:54:19;;;;;;;76.15;43.55;;;;;;;1.72;83.90;95747.26;1735744;81;21141;-86
2021/01/07 01:56:46;;;;;;;76.00;40.78;;;;;;;1.76;83.89;95749.86;1740828;81;21865;-85
2021/01/07 01:59:13;;;;;;;73.80;42.35;;;;;;;1.83;84.05;95747.55;1746216;81;21115;-85
2021/01/07 02:01:40;;;;;;;76.17;42.88;;;;;;;1.85;83.83;95749.48;1686748;84;21106;-86
2021/01/07 02:04:06;;;;;;;62.13;35.92;;;;;;;1.82;83.82;95744.66;1708109;83;21082;-86
2021/01/07 02:06:34;;;;;;;59.53;35.25;;;;;;;1.77;83.73;95740.75;1756420;81;21110;-85
2021/01/07 02:09:00;;;;;;;67.97;37.65;;;;;;;1.74;83.81;95743.59;1740205;81;21107;-86
2021/01/07 02:11:26;;;;;;;60.95;34.25;;;;;;;1.76;83.73;95749.38;1753159;81;21327;-86
2021/01/07 02:13:52;;;;;;;53.05;31.87;;;;;;;1.75;83.65;95742.65;1683008;81;21130;-85
2021/01/07 02:16:20;;;;;;;51.98;32.85;;;;;;;1.73;83.51;95739.42;1749921;81;21146;-86
2021/01/07 02:18:47;;;;;;;46.80;30.82;;;;;;;1.70;83.64;95741.47;1745449;81;21237;-86
2021/01/07 02:21:13;;;;;;;44.40;28.15;;;;;;;1.73;83.85;95741.99;1695598;84;21154;-86
2021/01/07 02:23:53;;;;;;;48.50;29.32;;;;;;;1.77;83.87;95732.26;1709862;83;21263;-86
2021/01/07 02:26:22;;;;;;;50.17;28.40;;;;;;;1.78;83.78;95742.83;1708732;83;21360;-86
2021/01/07 02:28:48;;;;;;;45.30;27.77;;;;;;;1.78;83.72;95743.64;1702374;83;21158;-86
2021/01/07 02:31:15;;;;;;;49.03;27.58;;;;;;;1.81;83.58;95742.57;1700662;83;21323;-86
2021/01/07 02:33:42;;;;;;;42.55;26.30;;;;;;;1.82;83.49;95742.09;1700233;83;21413;-86
2021/01/07 02:36:08;;;;;;;43.08;28.57;;;;;;;1.84;83.65;95742.76;1698924;83;21157;-86
2021/01/07 02:38:35;;;;;;;41.28;26.02;;;;;;;1.86;83.73;95746.78;1716917;82;21474;-86
2021/01/07 02:41:01;;;;;;;42.20;27.10;;;;;;;1.86;83.56;95747.26;1781198;80;21326;-87
2021/01/07 02:43:28;;;;;;;46.70;28.83;;;;;;;1.84;83.54;95744.04;1771337;79;21163;-86
2021/01/07 02:45:54;;;;;;;49.73;31.77;;;;;;;1.84;83.51;95742.28;1764051;80;21100;-86
2021/01/07 02:48:20;;;;;;;42.53;28.75;;;;;;;1.85;83.41;95743.09;1748817;79;21275;-86
2021/01/07 02:50:47;;;;;;;49.55;29.72;;;;;;;1.87;83.38;95739.42;1771044;79;21321;-85
2021/01/07 02:53:13;;;;;;;49.80;32.03;;;;;;;1.92;83.45;95751.80;1773530;79;21767;-86
2021/01/07 02:55:39;;;;;;;47.83;29.70;;;;;;;1.94;83.37;95743.48;1770546;79;21119;-86
2021/01/07 02:58:05;;;;;;;48.42;30.27;;;;;;;1.91;83.31;95748.91;1774655;79;21135;-85
2021/01/07 03:00:31;;;;;;;53.83;33.23;;;;;;;1.91;83.38;95748.91;1769991;79;21095;-86
2021/01/07 03:02:57;;;;;;;51.13;30.75;;;;;;;1.88;83.34;95746.64;1731069;81;21115;-85
2021/01/07 03:05:23;;;;;;;46.35;27.13;;;;;;;1.88;83.28;95746.16;1774498;79;21127;-86
2021/01/07 03:07:50;;;;;;;49.35;31.07;;;;;;;1.89;83.16;95743.92;1749691;80;21120;-85
2021/01/07 03:10:16;;;;;;;62.10;38.83;;;;;;;1.92;83.25;95751.80;1774571;80;21234;-86
2021/01/07 03:12:42;;;;;;;71.17;40.30;;;;;;;1.95;83.41;95743.38;1743542;80;21139;-86
2021/01/07 03:15:09;;;;;;;74.70;40.00;;;;;;;1.95;83.34;95736.97;1770290;80;21105;-86
2021/01/07 03:17:36;;;;;;;66.25;38.45;;;;;;;1.96;83.36;95746.27;1697184;83;21164;-86
2021/01/07 03:20:07;;;;;;;66.17;37.83;;;;;;;1.91;83.34;95746.34;1746265;80;21106;-86
2021/01/07 03:22:33;;;;;;;65.40;38.83;;;;;;;1.87;83.29;95741.98;1774910;79;21131;-86
2021/01/07 03:24:59;;;;;;;62.23;39.30;;;;;;;1.88;83.24;95744.88;1769453;79;21080;-87
2021/01/07 03:27:25;;;;;;;63.75;39.92;;;;;;;1.90;83.22;95744.73;1769348;80;21484;-85
2021/01/07 03:29:51;;;;;;;60.43;38.78;;;;;;;1.89;83.12;95743.13;1776266;80;21229;-86
2021/01/07 03:32:21;;;;;;;61.95;39.48;;;;;;;1.86;83.24;95742.94;1777125;79;21222;-85
2021/01/07 03:34:45;;;;;;;56.53;36.23;;;;;;;1.86;83.26;95742.14;1743677;81;21145;-86
2021/01/07 03:37:11;;;;;;;63.58;39.08;;;;;;;1.86;83.32;95741.66;1753258;81;21368;-86
2021/01/07 03:39:37;;;;;;;62.23;39.58;;;;;;;1.86;83.31;95744.70;1753932;81;21136;-86
2021/01/07 03:42:03;;;;;;;59.58;36.98;;;;;;;1.88;83.27;95747.92;1781484;79;21104;-86
2021/01/07 03:44:29;;;;;;;54.38;37.45;;;;;;;1.90;83.21;95746.82;1773415;79;21115;-86
2021/01/07 03:46:55;;;;;;;54.33;35.50;;;;;;;1.92;83.14;95747.95;1773476;79;21288;-86
2021/01/07 03:49:21;;;;;;;54.98;34.43;;;;;;;1.90;83.15;95745.54;1778219;80;21088;-86
2021/01/07 03:51:48;;;;;;;53.63;36.15;;;;;;;1.89;83.17;95750.81;1777657;79;21130;-86
2021/01/07 03:54:14;;;;;;;57.13;34.78;;;;;;;1.85;83.16;95745.17;1776693;79;21370;-86
2021/01/07 03:56:40;;;;;;;53.28;33.80;;;;;;;1.79;83.14;95746.56;1769139;80;21558;-86
2021/01/07 03:59:06;;;;;;;52.88;36.40;;;;;;;1.78;83.16;95750.05;1731242;81;21135;-86
2021/01/07 04:01:32;;;;;;;50.90;31.93;;;;;;;1.78;83.10;95748.76;1706200;82;21116;-86
2021/01/07 04:03:58;;;;;;;53.95;33.58;;;;;;;1.79;83.16;95748.31;1770784;79;21119;-86
2021/01/07 04:06:24;;;;;;;53.73;32.63;;;;;;;1.77;83.13;95750.19;1777132;80;21278;-87
2021/01/07 04:08:51;;;;;;;57.25;36.10;;;;;;;1.74;83.16;95747.92;1776853;79;21080;-86
2021/01/07 04:11:17;;;;;;;51.80;35.98;;;;;;;1.70;83.20;95748.69;1779062;79;21927;-86
2021/01/07 04:13:43;;;;;;;52.55;34.08;;;;;;;1.67;83.25;95752.81;1778098;80;21106;-85
2021/01/07 04:16:09;;;;;;;46.58;30.90;;;;;;;1.65;83.21;95752.16;1771485;79;21131;-86
2021/01/07 04:18:35;;;;;;;47.05;30.37;;;;;;;1.60;83.05;95745.83;1770707;80;21135;-86
2021/01/07 04:21:02;;;;;;;43.35;30.60;;;;;;;1.57;83.18;95749.48;1772887;79;21696;-86
2021/01/07 04:23:29;;;;;;;47.00;30.23;;;;;;;1.58;83.31;95754.13;1770504;80;21261;-87
2021/01/07 04:25:55;;;;;;;45.88;30.23;;;;;;;1.57;83.35;95749.48;1771590;79;21122;-86
2021/01/07 04:28:21;;;;;;;43.85;29.82;;;;;;;1.57;83.40;95751.23;1777489;79;21088;-86
2021/01/07 04:30:47;;;;;;;42.58;29.37;;;;;;;1.54;83.39;95747.20;1774323;79;21318;-86
2021/01/07 04:33:13;;;;;;;33.20;22.07;;;;;;;1.55;83.37;95748.02;1773823;79;21099;-86
2021/01/07 04:35:39;;;;;;;33.38;23.32;;;;;;;1.53;83.03;95752.47;1774015;79;21107;-86
2021/01/07 04:38:05;;;;;;;31.40;24.63;;;;;;;1.49;83.12;95754.05;1772583;79;21479;-86
2021/01/07 04:40:32;;;;;;;33.73;25.60;;;;;;;1.44;83.06;95760.03;1740933;80;21925;-86
2021/01/07 04:42:58;;;;;;;33.55;25.72;;;;;;;1.39;83.26;95758.86;1753204;81;21631;-86
2021/01/07 04:45:24;;;;;;;30.52;23.50;;;;;;;1.37;83.41;95760.75;1732566;81;21118;-86
2021/01/07 04:47:50;;;;;;;34.70;22.30;;;;;;;1.32;83.46;95759.90;1717084;82;21096;-86
2021/01/07 04:50:17;;;;;;;32.42;22.90;;;;;;;1.29;83.41;95760.63;1746005;80;21244;-86
2021/01/07 04:52:43;;;;;;;30.23;21.77;;;;;;;1.31;83.56;95764.69;1749104;80;21116;-86
2021/01/07 04:55:10;;;;;;;26.97;20.82;;;;;;;1.31;83.46;95758.28;1743166;80;21488;-86
2021/01/07 04:57:36;;;;;;;30.75;22.13;;;;;;;1.29;83.41;95758.07;1746664;82;21123;-87
2021/01/07 05:00:11;;;;;;;33.95;23.38;;;;;;;1.27;83.60;95758.69;1741438;82;21159;-86
2021/01/07 05:02:37;;;;;;;32.90;24.02;;;;;;;1.21;83.60;95751.10;1717545;83;21447;-86
2021/01/07 05:05:06;;;;;;;30.15;20.88;;;;;;;1.17;83.73;95756.98;1720979;82;21134;-87
2021/01/07 05:07:37;;;;;;;28.07;19.98;;;;;;;1.18;83.75;95756.03;1753865;81;21240;-86
2021/01/07 05:10:07;;;;;;;28.70;20.10;;;;;;;1.18;83.70;95753.47;1724679;81;21157;-86
2021/01/07 05:12:33;;;;;;;27.40;20.08;;;;;;;1.20;83.84;95753.33;1754388;81;21136;-86
2021/01/07 05:14:59;;;;;;;26.20;19.82;;;;;;;1.22;83.74;95754.47;1752829;81;21542;-86
2021/01/07 05:17:25;;;;;;;26.10;19.30;;;;;;;1.17;83.71;95756.98;1758048;81;21140;-86
2021/01/07 05:19:51;;;;;;;26.07;20.20;;;;;;;1.17;83.87;95755.70;1759312;81;21448;-86
2021/01/07 05:22:17;;;;;;;27.80;20.68;;;;;;;1.16;83.85;95756.64;1761175;81;21111;-86
2021/01/07 05:24:43;;;;;;;24.67;19.60;;;;;;;1.15;83.77;95758.88;1753411;81;21537;-86
2021/01/07 05:27:15;;;;;;;27.30;20.90;;;;;;;1.13;83.73;95763.77;1765370;81;21131;-86
2021/01/07 05:29:41;;;;;;;23.85;18.42;;;;;;;1.07;83.58;95761.77;1751452;81;21263;-86
2021/01/07 05:32:08;;;;;;;25.08;19.10;;;;;;;1.03;83.69;95763.00;1758085;81;21126;-86
2021/01/07 05:34:50;;;;;;;24.40;18.90;;;;;;;1.03;83.93;95763.00;1752466;81;21113;-86
2021/01/07 05:37:18;;;;;;;25.30;18.95;;;;;;;0.96;83.92;95764.01;1753798;81;21107;-86
2021/01/07 05:39:47;;;;;;;24.27;18.35;;;;;;;0.87;84.00;95768.69;1756477;81;21274;-86
2021/01/07 05:42:13;;;;;;;24.95;17.50;;;;;;;0.83;84.04;95765.59;1733497;82;21099;-86
2021/01/07 05:44:45;;;;;;;26.57;19.62;;;;;;;0.80;84.10;95770.16;1721319;82;21502;-86
2021/01/07 05:50:09;;;;;;;28.95;21.23;;;;;;;0.82;84.34;95772.13;1813625;77;23327;-88
2021/01/07 05:52:36;;;;;;;26.23;18.23;;;;;;;0.79;84.54;95776.22;1790867;78;21289;-86
2021/01/07 05:55:03;;;;;;;22.48;16.80;;;;;;;0.83;84.57;95777.58;1790893;79;21245;-88
2021/01/07 05:57:29;;;;;;;23.00;18.00;;;;;;;0.82;84.47;95782.36;1752452;79;21134;-87
2021/01/07 05:59:57;;;;;;;25.97;19.87;;;;;;;0.85;84.55;95778.25;1783755;78;21115;-88
2021/01/07 06:02:24;;;;;;;26.80;19.57;;;;;;;0.87;84.55;95782.28;1787368;78;21295;-88
2021/01/07 06:04:51;;;;;;;23.38;17.73;;;;;;;0.84;84.50;95778.72;1780019;78;21119;-87
2021/01/07 06:07:17;;;;;;;23.45;16.48;;;;;;;0.79;84.36;95787.72;1776403;78;21138;-86
2021/01/07 06:09:47;;;;;;;23.52;17.50;;;;;;;0.73;84.47;95788.28;1710371;81;21132;-87
2021/01/07 06:12:14;;;;;;;23.83;15.93;;;;;;;0.68;84.30;95794.28;1715278;81;21381;-87
2021/01/07 06:14:44;;;;;;;20.70;15.28;;;;;;;0.67;84.25;95793.47;1735437;80;21147;-87
2021/01/07 06:17:11;;;;;;;22.95;16.77;;;;;;;0.69;84.31;95795.89;1718973;81;21115;-88
2021/01/07 06:19:40;;;;;;;23.20;17.32;;;;;;;0.65;84.18;95803.03;1702482;83;21883;-87
2021/01/07 06:22:16;;;;;;;20.40;13.53;;;;;;;0.65;84.30;95807.31;1723895;81;21244;-87
2021/01/07 06:24:44;;;;;;;19.48;13.85;;;;;;;0.60;84.08;95811.55;1719425;82;21519;-87
2021/01/07 06:27:30;;;;;;;19.07;13.32;;;;;;;0.59;84.15;95812.02;1714884;82;21135;-86
2021/01/07 06:30:19;;;;;;;18.70;14.20;;;;;;;0.60;84.05;95817.95;1714697;81;21358;-85
2021/01/07 06:32:49;;;;;;;18.15;12.13;;;;;;;0.63;84.16;95824.53;1734799;81;21121;-86
2021/01/07 06:35:17;;;;;;;17.32;11.48;;;;;;;0.58;83.93;95820.64;1714955;81;21474;-86
2021/01/07 06:37:49;;;;;;;17.32;11.70;;;;;;;0.54;84.03;95824.41;1773069;80;21118;-86
2021/01/07 06:40:18;;;;;;;17.57;11.73;;;;;;;0.51;83.89;95827.23;1735500;81;21082;-86
2021/01/07 06:42:50;;;;;;;18.45;11.93;;;;;;;0.48;83.87;95827.48;1739453;81;21114;-85
2021/01/07 06:45:20;;;;;;;18.37;13.13;;;;;;;0.47;83.88;95832.26;1744473;81;21482;-85
2021/01/07 06:47:46;;;;;;;19.02;13.68;;;;;;;0.46;83.96;95837.03;1711994;82;21396;-86
2021/01/07 06:50:13;;;;;;;19.05;14.20;;;;;;;0.45;84.06;95835.42;1736575;82;21138;-86
2021/01/07 06:52:45;;;;;;;15.83;12.05;;;;;;;0.43;84.02;95842.41;1726729;81;22013;-83
2021/01/07 06:55:16;;;;;;;17.98;13.32;;;;;;;0.43;83.96;95846.72;1725333;82;21112;-83
2021/01/07 06:57:45;;;;;;;19.32;13.60;;;;;;;0.43;83.97;95853.92;1772674;80;21117;-83
2021/01/07 07:00:14;;;;;;;14.58;10.68;;;;;;;0.45;83.97;95853.78;1774849;80;21129;-83
2021/01/07 07:03:02;;;;;;;17.17;11.45;;;;;;;0.44;83.93;95863.67;1779561;79;21511;-83
2021/01/07 07:05:33;;;;;;;18.77;13.68;;;;;;;0.41;83.80;95860.91;1758823;79;21116;-82
2021/01/07 07:08:12;;;;;;;33.30;27.60;;;;;;;0.36;83.72;95866.09;1764550;79;21312;-83
2021/01/07 07:10:43;;;;;;;24.10;18.23;;;;;;;0.34;83.78;95873.89;1770276;79;21130;-83
2021/01/07 07:13:20;;;;;;;23.85;18.90;;;;;;;0.35;83.79;95878.06;1762901;79;21114;-83
2021/01/07 07:15:48;;;;;;;23.30;17.32;;;;;;;0.39;84.00;95879.41;1760640;80;21260;-82
2021/01/07 07:18:27;;;;;;;21.00;14.85;;;;;;;0.39;84.03;95884.52;1722093;81;21158;-83
2021/01/07 07:20:53;;;;;;;17.45;12.68;;;;;;;0.41;84.03;95886.94;1719224;82;21440;-83
2021/01/07 07:23:21;;;;;;;19.52;13.43;;;;;;;0.38;83.76;95893.59;1765316;79;21125;-83
2021/01/07 07:25:53;;;;;;;16.55;12.98;;;;;;;0.38;83.75;95896.16;1757729;80;21141;-83
2021/01/07 07:28:22;;;;;;;;;;;;;;;0.36;83.75;95900.59;1767458;79;21271;-83
2021/01/07 07:30:49;;;;;;;16.02;13.15;;;;;;;0.37;83.93;95906.04;1767252;79;20167;-83
2021/01/07 07:33:41;;;;;;;17.48;14.70;;;;;;;0.36;83.83;95903.95;1767830;79;21095;-83
2021/01/07 07:36:09;;;;;;;17.12;12.70;;;;;;;0.36;83.78;95910.34;1759309;79;21122;-83
2021/01/07 07:38:40;;;;;;;20.90;13.13;;;;;;;0.36;83.62;95914.65;1768165;79;21131;-83
2021/01/07 07:41:09;;;;;;;22.48;14.87;;;;;;;0.35;83.78;95911.76;1767511;79;21119;-83
2021/01/07 07:43:37;;;;;;;23.27;17.30;;;;;;;0.31;83.71;95918.84;1701333;82;21096;-83
2021/01/07 07:46:04;;;;;;;25.50;17.55;;;;;;;0.27;83.77;95920.86;1706970;82;21431;-83
2021/01/07 07:48:31;;;;;;;21.23;15.58;;;;;;;0.28;83.73;95929.34;1711853;82;21633;-83
2021/01/07 07:51:10;;;;;;;20.43;16.20;;;;;;;0.25;83.48;95924.48;1741935;80;21775;-82
2021/01/07 07:53:38;;;;;;;20.35;14.47;;;;;;;0.32;83.57;95935.80;1746011;80;21153;-82
2021/01/07 07:56:21;;;;;;;34.55;25.50;;;;;;;0.34;83.70;95935.70;1748859;80;21097;-82
2021/01/07 07:58:47;;;;;;;21.70;16.50;;;;;;;0.35;83.76;95941.95;1741433;80;21192;-84
2021/01/07 08:01:13;;;;;;;22.02;15.48;;;;;;;0.34;83.52;95942.09;1746106;81;21226;-82
2021/01/07 08:03:39;;;;;;;19.75;14.73;;;;;;;0.35;83.40;95951.37;1702408;80;21120;-82
2021/01/07 08:06:05;;;;;;;18.20;13.25;;;;;;;0.36;83.46;95942.77;1747221;80;21136;-81
2021/01/07 08:08:33;;;;;;;20.08;14.43;;;;;;;0.34;83.26;95951.03;1747457;79;21295;-82
2021/01/07 08:11:00;;;;;;;23.05;16.50;;;;;;;0.33;83.28;95950.69;1740813;80;21356;-82
2021/01/07 08:13:29;;;;;;;22.75;15.95;;;;;;;0.38;83.40;95952.38;1736119;79;21252;-83
2021/01/07 08:15:58;;;;;;;19.07;14.00;;;;;;;0.41;83.30;95955.48;1741778;80;21114;-82
2021/01/07 08:18:28;;;;;;;17.20;12.68;;;;;;;0.45;83.36;95952.19;1743005;80;21120;-81
2021/01/07 08:21:17;;;;;;;21.50;14.23;;;;;;;0.41;83.10;95956.76;1762705;80;21467;-82
2021/01/07 08:23:43;;;;;;;18.45;14.05;;;;;;;0.40;83.25;95962.81;1703450;83;21125;-82
2021/01/07 08:26:18;;;;;;;19.60;13.70;;;;;;;0.44;83.23;95961.61;1699216;84;21283;-82
2021/01/07 08:28:57;;;;;;;20.52;14.65;;;;;;;0.51;83.08;95961.91;1817166;77;24191;-83
2021/01/07 08:31:26;;;;;;;21.82;14.38;;;;;;;0.49;83.07;95966.36;1852664;77;21213;-83
2021/01/07 08:33:52;;;;;;;21.93;14.60;;;;;;;0.48;83.12;95966.80;1843854;77;21094;-83
2021/01/07 08:36:20;;;;;;;23.27;15.20;;;;;;;0.49;83.09;95972.74;1845174;76;21114;-82
2021/01/07 08:38:53;;;;;;;20.35;14.68;;;;;;;0.52;83.06;95977.13;1850155;77;21050;-83
2021/01/07 08:41:27;;;;;;;21.85;15.03;;;;;;;0.54;82.92;95974.44;1854075;76;21563;-83
2021/01/07 08:43:54;;;;;;;23.50;14.85;;;;;;;0.55;82.90;95979.88;1847610;77;21090;-82
2021/01/07 08:46:23;;;;;;;21.20;14.47;;;;;;;0.53;83.02;95983.04;1846694;76;21232;-82
2021/01/07 08:49:16;;;;;;;21.62;15.48;;;;;;;0.56;83.12;95979.75;1843828;76;21080;-82
2021/01/07 08:51:44;;;;;;;21.95;15.90;;;;;;;0.61;83.06;95984.47;1850778;76;21106;-82
2021/01/07 08:54:19;;;;;;;26.42;17.27;;;;;;;0.62;82.93;95984.80;1845378;76;21098;-81
2021/01/07 08:56:50;;;;;;;21.20;15.50;;;;;;;0.61;83.03;95987.02;1815524;76;21368;-85
2021/01/07 08:59:32;;;;;;;21.73;15.00;;;;;;;0.56;83.00;95989.17;1847858;76;21054;-82
2021/01/07 09:02:01;;;;;;;23.10;15.88;;;;;;;0.56;83.05;95991.25;1798692;79;21106;-82
2021/01/07 09:04:37;;;;;;;24.87;17.15;;;;;;;0.60;83.05;95997.72;1751807;79;21098;-83
2021/01/07 09:07:18;;;;;;;25.10;16.85;;;;;;;0.67;83.11;95999.78;1782528;79;21244;-82
2021/01/07 09:09:55;;;;;;;15.73;12.40;;;;;;;0.70;83.15;96000.79;1764295;80;21179;-82
2021/01/07 09:12:33;;;;;;;19.02;13.88;;;;;;;0.71;82.97;96003.69;1776599;80;21291;-82
2021/01/07 09:15:13;;;;;;;21.52;16.23;;;;;;;0.71;83.01;96002.41;1785921;80;21134;-82
2021/01/07 09:17:48;;;;;;;20.72;15.58;;;;;;;0.77;82.92;95997.56;1786410;79;21118;-82
2021/01/07 09:20:31;;;;;;;25.27;16.05;;;;;;;0.85;82.86;96002.05;1782979;80;21102;-82
2021/01/07 09:23:05;;;;;;;22.35;16.15;;;;;;;0.90;82.82;96001.17;1785617;80;21078;-81
2021/01/07 09:25:31;;;;;;;22.15;16.37;;;;;;;0.93;82.56;95997.54;1759274;80;21411;-81
2021/01/07 09:27:58;;;;;;;25.02;16.80;;;;;;;0.90;82.30;96002.45;1779437;80;21126;-80
2021/01/07 09:30:25;;;;;;;21.77;15.23;;;;;;;0.89;82.46;95996.53;1782426;79;21217;-81
2021/01/07 09:32:51;;;;;;;22.48;16.23;;;;;;;0.90;82.15;96003.73;1771451;80;21122;-81
2021/01/07 09:35:17;;;;;;;23.90;17.70;;;;;;;0.99;82.30;96000.40;1773517;80;21547;-80
2021/01/07 09:37:44;;;;;;;23.57;17.15;;;;;;;1.03;82.29;96001.74;1773204;80;21137;-80
2021/01/07 09:40:11;;;;;;;23.38;17.12;;;;;;;1.04;82.33;96000.80;1775449;79;21316;-82
2021/01/07 09:42:37;;;;;;;20.57;16.27;;;;;;;1.09;82.14;96007.59;1808773;78;21114;-82
2021/01/07 09:45:05;;;;;;;24.60;17.00;;;;;;;1.09;81.97;96001.20;1768556;80;21114;-82
2021/01/07 09:47:31;;;;;;;21.82;15.78;;;;;;;1.08;82.07;96002.15;1806533;77;21138;-82
2021/01/07 09:49:58;;;;;;;24.65;17.50;;;;;;;1.07;82.01;96005.65;1777767;79;21122;-81
2021/01/07 09:52:25;;;;;;;25.08;16.75;;;;;;;1.10;82.13;96005.38;1783847;79;21082;-82
2021/01/07 09:54:51;;;;;;;18.40;13.35;;;;;;;1.15;82.09;96003.25;1783228;80;21224;-82
2021/01/07 09:57:18;;;;;;;25.80;16.93;;;;;;;1.24;82.01;96000.82;1783598;80;21145;-81
2021/01/07 09:59:44;;;;;;;37.08;23.60;;;;;;;1.35;81.92;96003.27;1771417;80;21122;-82
2021/01/07 10:02:11;;;;;;;56.63;34.30;;;;;;;1.36;81.54;96004.41;1780417;80;21422;-81
2021/01/07 10:04:41;;;;;;;54.48;38.67;;;;;;;1.31;81.32;96000.64;1783399;80;21263;-81
2021/01/07 10:07:05;;;;;;;20.65;16.07;;;;;;;1.30;81.38;96004.11;1785573;80;21379;-82
2021/01/07 10:09:32;;;;;;;20.60;14.43;;;;;;;1.30;81.49;96002.83;1798196;78;21073;-82
2021/01/07 10:11:58;;;;;;;28.45;21.15;;;;;;;1.37;81.42;96006.49;1829527;77;21495;-83
2021/01/07 10:14:27;;;;;;;24.32;18.35;;;;;;;1.40;81.30;96002.38;1844158;77;21085;-82
2021/01/07 10:17:00;;;;;;;19.90;14.63;;;;;;;1.41;81.27;96000.16;1807150;76;21118;-82
2021/01/07 10:19:29;;;;;;;20.05;15.03;;;;;;;1.42;81.01;96000.48;1830116;77;21082;-83
2021/01/07 10:22:09;;;;;;;19.30;16.07;;;;;;;1.39;80.86;95999.48;1839807;77;21107;-82
2021/01/07 10:24:46;;;;;;;26.80;18.90;;;;;;;1.41;80.82;95996.31;1844107;77;21265;-82
2021/01/07 10:27:17;;;;;;;36.35;19.23;;;;;;;1.43;80.77;95991.87;1795704;79;21135;-83
2021/01/07 10:29:45;;;;;;;57.27;27.10;;;;;;;1.41;80.69;95998.87;1786513;80;21153;-82
2021/01/07 10:32:18;;;;;;;23.50;16.20;;;;;;;1.33;80.38;95998.75;1775324;79;21213;-82
2021/01/07 10:34:46;;;;;;;23.90;17.27;;;;;;;1.17;79.94;96000.08;1775551;80;21548;-82
2021/01/07 10:37:16;;;;;;;18.45;15.70;;;;;;;1.09;80.30;95996.55;1777567;80;21121;-82
2021/01/07 10:39:42;;;;;;;24.02;15.58;;;;;;;1.04;80.25;95996.16;1786046;79;21150;-82
2021/01/07 10:42:11;;;;;;;32.48;18.12;;;;;;;1.06;80.54;95996.36;1789758;79;21110;-83
2021/01/07 10:44:38;;;;;;;57.00;25.77;;;;;;;1.13;80.92;96001.27;1841948;77;21117;-82
2021/01/07 10:47:06;;;;;;;52.62;23.87;;;;;;;1.16;80.68;96001.03;1832900;77;21314;-83
2021/01/07 10:49:34;;;;;;;29.45;20.45;;;;;;;1.13;80.52;95995.34;1811534;77;21078;-85
2021/01/07 10:52:11;;;;;;;21.10;14.28;;;;;;;1.14;80.68;95995.70;1828561;77;21453;-85
2021/01/07 10:55:09;;;;;;;22.40;15.60;;;;;;;1.23;80.79;96000.48;1770687;77;21153;-84
2021/01/07 10:57:59;;;;;;;17.82;12.00;;;;;;;1.26;80.33;95997.18;1836788;77;21114;-83
2021/01/07 11:01:04;;;;;;;18.55;11.68;;;;;;;1.34;80.64;95991.41;1826652;77;21263;-83
2021/01/07 11:03:47;;;;;;;26.68;15.68;;;;;;;1.49;80.55;95990.88;1843792;77;21157;-85
2021/01/07 11:06:17;;;;;;;30.23;19.40;;;;;;;1.63;80.53;95990.13;1836255;77;21114;-83
2021/01/07 11:09:07;;;;;;;19.87;14.98;;;;;;;1.75;80.40;95983.89;1799881;77;21255;-84
2021/01/07 11:11:44;;;;;;;17.98;13.88;;;;;;;1.77;79.92;95986.65;1831429;76;21364;-84
2021/01/07 11:14:34;;;;;;;18.10;13.15;;;;;;;1.78;79.68;95986.98;1811993;77;21106;-84
2021/01/07 11:17:01;;;;;;;17.27;12.35;;;;;;;1.78;79.87;95988.73;1809828;77;21531;-83
2021/01/07 11:19:27;;;;;;;24.40;14.00;;;;;;;1.83;79.49;95984.51;1843870;77;21220;-84
2021/01/07 11:22:14;;;;;;;21.23;13.75;;;;;;;1.83;79.03;95982.75;1840671;77;21130;-84
2021/01/07 11:24:40;;;;;;;18.25;13.22;;;;;;;1.87;79.46;95975.12;1802112;77;21141;-83
2021/01/07 11:27:06;;;;;;;17.12;13.62;;;;;;;2.01;79.23;95976.44;1820687;77;21094;-84
2021/01/07 11:29:34;;;;;;;16.07;11.85;;;;;;;2.08;79.03;95971.89;1843379;77;21105;-84
2021/01/07 11:32:02;;;;;;;14.90;10.03;;;;;;;2.08;78.49;95973.17;1846302;77;21097;-83
2021/01/07 11:34:28;;;;;;;18.30;11.70;;;;;;;2.09;78.72;95975.27;1853827;77;21113;-84
2021/01/07 11:37:24;;;;;;;17.60;10.98;;;;;;;2.08;78.53;95976.20;1842478;77;21117;-84